Etusivu
METAR-TAF:

METAR-TAF

Lentoasemat :

Sylacauga, Alabama, Yhdysvallat

Leveyspiiri: 33-10-19N, Pituuspiiri: 086-18-20W, korkeus merenpinnasta: 173 m

Tämänhetkinen sää

Tämä raportti tehtiin 29 minuuttia sitten, kello 14.35 UTC
tyyntä
Lämpötila 13°C
Kosteus 67%
Ilmanpaine 1021 hPa
Näkyvyys: 16.1 km
Hajanaisia pilviä 2600 ft:n korkeudessa
Pilvistä 4300 ft:n korkeudessa

METAR: KSCD 261435Z AUTO 00000KT 10SM SCT026 OVC043 13/07 A3015 RMK AO2 T01250070

Aika: 09:04 (15:04 UTC)


TAF: puuttuu

Säähavainnot ja -ennusteet yli 4000 lentoasemalta (METAR- ja TAF-raportit).

Käytössä olevat sääasemat on merkitty karttaan keltaisilla ja punaisilla pisteillä.

Aseta hiiri pisteen päälle nähdäksesi sääaseman nimen.

Klikkaa sitten nähdäksesi säähavainnot ja -ennusteet.

Kartan vaihtaminen: klikkaa mustalla rastilla varustettuja vihreitä pisteitä, niin voit zoomata sisään; viivalla varustettua vihreää pistettä, niin voit zoomata ulos tai vihreitä nuolia, niin pääset viereisille kartoille.


METAR-TAF: